Time;durP1;ratioP1;P1;durP2;ratioP2;P2;SDS_P1;SDS_P2;PMS_P1;PMS_P2;Temp;Humidity;BMP_temperature;BMP_pressure;BME280_temperature;BME280_humidity;BME280_pressure;Samples;Min_cycle;Max_cycle;Signal;HPM_P1;HPM_P2
2022/07/17 00:02:20;;;;;;;3.53;2.30;;;19.30;53.30;;;;;;4987653;28;20467;-45
2022/07/17 00:04:47;;;;;;;2.90;1.90;;;19.30;53.40;;;;;;4991020;28;20881;-46
2022/07/17 00:07:14;;;;;;;3.40;1.67;;;19.30;53.20;;;;;;4974697;28;20541;-46
2022/07/17 00:09:41;;;;;;;4.10;2.20;;;19.30;53.40;;;;;;4990084;28;20460;-46
2022/07/17 00:12:08;;;;;;;3.53;2.20;;;19.20;53.70;;;;;;4990365;28;20461;-46
2022/07/17 00:14:34;;;;;;;5.90;1.83;;;19.20;53.60;;;;;;4990691;28;20564;-46
2022/07/17 00:17:01;;;;;;;2.00;1.83;;;19.20;53.60;;;;;;4989252;28;20522;-46
2022/07/17 00:19:28;;;;;;;2.50;2.00;;;19.10;53.70;;;;;;4989165;28;20470;-46
2022/07/17 00:21:55;;;;;;;2.03;1.90;;;19.10;53.50;;;;;;4989261;28;20461;-46
2022/07/17 00:24:22;;;;;;;3.87;2.50;;;19.00;53.70;;;;;;4989847;28;21033;-46
2022/07/17 00:26:50;;;;;;;2.70;1.97;;;18.90;54.00;;;;;;4990622;28;20471;-46
2022/07/17 00:29:18;;;;;;;3.23;2.30;;;18.90;54.30;;;;;;4989214;28;20947;-46
2022/07/17 00:31:46;;;;;;;2.33;2.00;;;18.90;54.00;;;;;;4987037;28;20523;-46
2022/07/17 00:34:13;;;;;;;2.07;1.80;;;18.80;54.00;;;;;;4992303;28;21335;-46
2022/07/17 00:36:39;;;;;;;2.40;1.80;;;18.80;54.20;;;;;;4989507;28;20488;-46
2022/07/17 00:39:06;;;;;;;2.53;1.80;;;18.80;54.20;;;;;;4973768;28;20464;-46
2022/07/17 00:41:33;;;;;;;2.60;2.20;;;18.80;54.20;;;;;;4989454;28;21068;-46
2022/07/17 00:44:08;;;;;;;5.17;2.40;;;18.70;54.40;;;;;;4990176;28;21029;-46
2022/07/17 00:46:36;;;;;;;3.97;2.23;;;18.60;54.50;;;;;;4987778;28;20868;-46
2022/07/17 00:49:03;;;;;;;3.43;2.27;;;18.60;54.80;;;;;;4988825;28;20457;-46
2022/07/17 00:51:30;;;;;;;1.93;1.60;;;18.50;54.90;;;;;;4988351;28;20468;-46
2022/07/17 00:53:58;;;;;;;2.60;1.80;;;18.50;54.90;;;;;;4988869;28;20503;-46
2022/07/17 00:56:32;;;;;;;3.50;1.90;;;18.40;55.10;;;;;;4990449;28;20449;-45
2022/07/17 00:59:01;;;;;;;4.70;2.73;;;18.40;55.20;;;;;;4988614;28;20483;-46
2022/07/17 01:01:30;;;;;;;2.93;2.20;;;18.30;55.40;;;;;;4966571;28;20500;-46
2022/07/17 01:03:58;;;;;;;2.80;2.60;;;18.30;55.60;;;;;;4988257;28;20519;-46
2022/07/17 01:06:25;;;;;;;3.20;2.03;;;18.30;55.40;;;;;;4972961;28;20461;-46
2022/07/17 01:08:52;;;;;;;3.10;1.90;;;18.20;55.40;;;;;;4988257;28;20465;-46
2022/07/17 01:11:20;;;;;;;3.03;2.70;;;18.20;55.80;;;;;;4989558;28;20519;-46
2022/07/17 01:13:47;;;;;;;4.57;2.40;;;18.10;56.00;;;;;;4972219;28;20469;-45
2022/07/17 01:16:15;;;;;;;2.87;2.20;;;18.10;56.10;;;;;;4989684;28;20978;-46
2022/07/17 01:18:42;;;;;;;2.50;2.30;;;18.00;56.20;;;;;;4988467;28;20508;-45
2022/07/17 01:21:09;;;;;;;2.23;2.03;;;18.10;56.10;;;;;;4988263;28;20491;-46
2022/07/17 01:23:36;;;;;;;4.90;2.30;;;18.00;56.30;;;;;;4985373;28;20474;-45
2022/07/17 01:26:03;;;;;;;7.60;2.20;;;18.00;56.30;;;;;;4989477;28;21171;-45
2022/07/17 01:28:30;;;;;;;2.40;1.90;;;17.90;56.30;;;;;;4986223;28;20539;-45
2022/07/17 01:30:59;;;;;;;3.50;2.30;;;17.90;56.30;;;;;;4988711;28;21367;-46
2022/07/17 01:33:26;;;;;;;3.20;2.30;;;17.90;56.60;;;;;;4989099;28;20461;-45
2022/07/17 01:35:53;;;;;;;3.30;2.00;;;17.80;56.50;;;;;;4989881;28;20563;-45
2022/07/17 01:38:20;;;;;;;4.07;2.10;;;17.80;56.60;;;;;;4987396;28;20473;-45
2022/07/17 01:40:47;;;;;;;2.90;2.10;;;17.70;56.70;;;;;;4987597;28;20488;-46
2022/07/17 01:43:14;;;;;;;4.10;2.00;;;17.70;56.40;;;;;;4989088;28;20503;-46
2022/07/17 01:45:41;;;;;;;4.47;1.77;;;17.70;56.70;;;;;;4988426;28;20457;-46
2022/07/17 01:48:08;;;;;;;7.80;2.33;;;17.60;56.90;;;;;;4989181;28;20858;-46
2022/07/17 01:50:35;;;;;;;3.13;1.93;;;17.50;56.90;;;;;;4984442;28;20577;-45
2022/07/17 01:53:02;;;;;;;2.93;2.60;;;17.50;57.00;;;;;;4986617;28;20970;-46
2022/07/17 01:55:29;;;;;;;5.93;2.90;;;17.50;57.20;;;;;;4987518;28;20479;-46
2022/07/17 01:57:56;;;;;;;2.83;1.73;;;17.50;57.40;;;;;;4988117;28;21144;-46
2022/07/17 02:00:25;;;;;;;2.53;2.13;;;17.40;57.40;;;;;;4989533;28;21090;-46
2022/07/17 02:02:52;;;;;;;4.27;2.43;;;17.40;57.70;;;;;;4988612;28;20534;-45
2022/07/17 02:05:19;;;;;;;4.20;2.13;;;17.40;57.50;;;;;;4987777;28;21005;-46
2022/07/17 02:07:46;;;;;;;6.40;2.37;;;17.30;57.60;;;;;;4969060;28;20966;-46
2022/07/17 02:10:16;;;;;;;2.83;2.07;;;17.30;57.60;;;;;;4986931;28;20465;-45
2022/07/17 02:12:44;;;;;;;4.90;1.93;;;17.30;57.60;;;;;;4987496;28;20496;-46
2022/07/17 02:15:11;;;;;;;3.60;2.50;;;17.30;57.70;;;;;;4987412;28;20552;-46
2022/07/17 02:17:39;;;;;;;6.00;2.47;;;17.30;58.10;;;;;;4973543;28;20469;-46
2022/07/17 02:20:07;;;;;;;4.67;1.97;;;17.20;58.10;;;;;;4987250;28;20472;-45
2022/07/17 02:22:36;;;;;;;2.13;1.97;;;17.20;58.20;;;;;;4986837;28;20461;-46
2022/07/17 02:25:05;;;;;;;5.00;2.30;;;17.20;58.20;;;;;;4988232;28;20544;-45
2022/07/17 02:27:32;;;;;;;2.43;1.80;;;17.20;58.40;;;;;;4986596;28;20465;-46
2022/07/17 02:30:05;;;;;;;3.43;1.97;;;17.20;58.30;;;;;;4987875;28;20468;-46
2022/07/17 02:32:32;;;;;;;1.90;1.53;;;17.10;58.20;;;;;;4988865;28;20468;-47
2022/07/17 02:34:59;;;;;;;2.50;2.30;;;17.10;58.40;;;;;;4988385;28;20473;-46
2022/07/17 02:37:26;;;;;;;2.10;1.87;;;17.00;58.60;;;;;;4986853;28;20477;-46
2022/07/17 02:39:53;;;;;;;2.93;2.10;;;17.00;58.40;;;;;;4986963;28;20974;-47
2022/07/17 02:42:22;;;;;;;3.63;1.87;;;17.00;58.50;;;;;;4986480;28;20493;-46
2022/07/17 02:44:49;;;;;;;1.90;1.70;;;17.00;58.10;;;;;;4987321;28;20896;-46
2022/07/17 02:47:33;;;;;;;4.30;2.20;;;16.90;58.60;;;;;;4985949;28;20457;-47
2022/07/17 02:50:03;;;;;;;4.93;2.20;;;16.90;58.70;;;;;;4988482;28;20543;-46
2022/07/17 02:52:30;;;;;;;2.63;1.90;;;16.90;58.60;;;;;;4972934;28;20461;-45
2022/07/17 02:54:57;;;;;;;3.20;1.80;;;16.80;59.00;;;;;;4985976;28;20461;-48
2022/07/17 02:57:23;;;;;;;3.83;2.10;;;16.80;59.00;;;;;;4974867;28;20464;-48
2022/07/17 02:59:50;;;;;;;2.90;1.87;;;16.70;59.00;;;;;;4988985;28;20457;-47
2022/07/17 03:02:17;;;;;;;3.23;1.97;;;16.70;59.20;;;;;;4994074;28;20575;-47
2022/07/17 03:04:44;;;;;;;2.80;2.10;;;16.70;59.30;;;;;;4991728;28;20713;-48
2022/07/17 03:07:11;;;;;;;2.20;1.87;;;16.70;59.30;;;;;;4990611;28;21130;-48
2022/07/17 03:09:38;;;;;;;8.63;1.87;;;16.60;59.30;;;;;;4991406;28;20453;-48
2022/07/17 03:12:05;;;;;;;3.03;2.03;;;16.60;59.40;;;;;;4993654;28;20476;-48
2022/07/17 03:14:32;;;;;;;2.60;1.83;;;16.60;59.30;;;;;;4989032;28;20479;-47
2022/07/17 03:16:58;;;;;;;2.80;2.37;;;16.60;59.70;;;;;;4990367;28;20464;-48
2022/07/17 03:19:26;;;;;;;4.57;2.10;;;16.50;59.80;;;;;;4990499;28;20488;-48
2022/07/17 03:21:52;;;;;;;3.30;1.80;;;16.50;60.00;;;;;;4991766;28;20488;-48
2022/07/17 03:24:19;;;;;;;4.20;2.10;;;16.50;60.40;;;;;;4973837;28;20507;-47
2022/07/17 03:26:48;;;;;;;3.07;1.60;;;16.40;60.20;;;;;;4991640;28;20471;-48
2022/07/17 03:29:17;;;;;;;5.40;2.50;;;16.40;60.40;;;;;;4988671;28;20457;-47
2022/07/17 03:31:45;;;;;;;3.70;2.00;;;16.40;60.50;;;;;;4991404;28;20465;-47
2022/07/17 03:34:13;;;;;;;2.73;1.90;;;16.40;60.60;;;;;;4987118;28;20472;-48
2022/07/17 03:36:39;;;;;;;1.77;1.60;;;16.40;60.70;;;;;;4989355;28;20493;-48
2022/07/17 03:39:07;;;;;;;3.30;1.80;;;16.40;60.70;;;;;;4988319;28;21923;-48
2022/07/17 03:41:33;;;;;;;2.10;1.83;;;16.40;60.70;;;;;;4990920;28;20493;-48
2022/07/17 03:44:00;;;;;;;2.20;2.00;;;16.30;60.70;;;;;;4991370;28;20461;-48
2022/07/17 03:46:27;;;;;;;7.43;2.30;;;16.30;60.70;;;;;;4991992;28;20465;-48
2022/07/17 03:48:54;;;;;;;2.60;2.13;;;16.30;60.50;;;;;;4990283;28;20461;-48
2022/07/17 03:51:21;;;;;;;1.93;1.77;;;16.30;60.50;;;;;;4990771;28;20548;-48
2022/07/17 03:53:48;;;;;;;3.73;1.80;;;16.30;60.50;;;;;;4992330;28;20465;-48
2022/07/17 03:56:15;;;;;;;3.47;1.50;;;16.20;60.50;;;;;;4973602;28;20470;-48
2022/07/17 03:58:41;;;;;;;4.27;2.13;;;16.20;60.60;;;;;;4974733;28;20817;-48
2022/07/17 04:01:08;;;;;;;2.87;1.70;;;16.20;60.70;;;;;;4990694;28;20493;-48
2022/07/17 04:03:35;;;;;;;2.80;1.50;;;16.20;60.80;;;;;;4991058;28;20564;-48
2022/07/17 04:06:02;;;;;;;3.60;2.23;;;16.20;60.70;;;;;;4974226;28;20473;-48
2022/07/17 04:08:29;;;;;;;3.37;2.27;;;16.20;60.80;;;;;;4991006;28;20500;-48
2022/07/17 04:10:56;;;;;;;3.80;1.80;;;16.10;60.90;;;;;;4991192;28;20472;-48
2022/07/17 04:13:23;;;;;;;2.50;1.37;;;16.10;60.90;;;;;;4991516;28;20468;-48
2022/07/17 04:15:55;;;;;;;3.87;1.60;;;16.10;61.00;;;;;;4990814;28;20484;-48
2022/07/17 04:18:26;;;;;;;3.70;1.73;;;16.10;61.00;;;;;;4990926;28;20821;-48
2022/07/17 04:20:55;;;;;;;3.63;2.17;;;16.10;61.00;;;;;;4987326;28;20496;-48
2022/07/17 04:23:21;;;;;;;3.50;1.97;;;16.10;61.20;;;;;;4989917;28;20457;-48
2022/07/17 04:25:48;;;;;;;8.63;2.10;;;16.10;61.10;;;;;;4991192;28;20469;-48
2022/07/17 04:28:15;;;;;;;6.17;1.70;;;16.10;61.00;;;;;;4988206;28;20476;-48
2022/07/17 04:30:43;;;;;;;3.37;2.00;;;16.20;60.90;;;;;;4989453;28;20553;-49
2022/07/17 04:33:09;;;;;;;4.73;2.03;;;16.20;61.00;;;;;;4976380;28;20487;-48
2022/07/17 04:35:36;;;;;;;3.60;1.77;;;16.20;61.00;;;;;;4991993;28;20986;-47
2022/07/17 04:38:05;;;;;;;5.33;2.20;;;16.20;61.10;;;;;;4988066;28;20484;-47
2022/07/17 04:40:34;;;;;;;4.50;2.10;;;16.20;61.20;;;;;;4991591;28;20942;-48
2022/07/17 04:43:01;;;;;;;4.00;2.33;;;16.20;61.30;;;;;;4992088;28;20552;-48
2022/07/17 04:45:28;;;;;;;2.63;1.77;;;16.30;61.50;;;;;;4989798;28;21411;-47
2022/07/17 04:47:55;;;;;;;3.13;2.13;;;16.30;61.50;;;;;;4995191;28;20555;-48
2022/07/17 04:50:22;;;;;;;3.37;2.00;;;16.30;61.40;;;;;;4995042;28;20465;-48
2022/07/17 04:52:49;;;;;;;3.73;2.03;;;16.30;61.60;;;;;;4994383;28;20847;-48
2022/07/17 04:55:16;;;;;;;6.27;1.90;;;16.40;61.70;;;;;;4994744;28;21498;-48
2022/07/17 04:57:44;;;;;;;5.77;2.50;;;16.40;61.60;;;;;;4995122;28;20476;-48
2022/07/17 05:00:11;;;;;;;8.40;2.53;;;16.40;61.70;;;;;;4992584;28;21015;-48
2022/07/17 05:02:38;;;;;;;4.40;2.87;;;16.50;61.90;;;;;;4990394;28;20488;-48
2022/07/17 05:05:05;;;;;;;2.33;2.07;;;16.50;61.90;;;;;;4988469;28;20945;-48
2022/07/17 05:07:32;;;;;;;3.97;2.40;;;16.60;62.00;;;;;;4988800;28;20456;-48
2022/07/17 05:09:59;;;;;;;8.40;2.43;;;16.60;62.00;;;;;;4992514;28;20552;-48
2022/07/17 05:12:27;;;;;;;2.97;2.63;;;16.70;62.00;;;;;;4991844;28;20832;-48
2022/07/17 05:14:53;;;;;;;5.50;2.20;;;16.70;62.00;;;;;;4979086;28;20457;-47
2022/07/17 05:17:20;;;;;;;3.20;1.90;;;16.80;62.00;;;;;;4992462;28;20805;-47
2022/07/17 05:19:47;;;;;;;4.70;2.50;;;16.80;62.10;;;;;;4992710;28;20887;-48
2022/07/17 05:22:14;;;;;;;4.00;1.70;;;16.90;62.20;;;;;;4994302;28;20592;-48
2022/07/17 05:24:41;;;;;;;3.67;2.33;;;17.00;61.60;;;;;;4976560;28;20571;-48
2022/07/17 05:27:07;;;;;;;4.10;2.17;;;17.10;61.20;;;;;;4974382;28;20488;-48
2022/07/17 05:29:34;;;;;;;3.47;1.90;;;17.10;61.10;;;;;;4975307;28;20457;-49
2022/07/17 05:32:02;;;;;;;5.30;2.50;;;17.20;61.30;;;;;;4993042;28;20469;-48
2022/07/17 05:34:31;;;;;;;6.97;2.30;;;17.30;60.90;;;;;;4989428;28;20465;-48
2022/07/17 05:36:57;;;;;;;4.23;2.00;;;17.40;60.50;;;;;;4992197;28;20527;-48
2022/07/17 05:39:24;;;;;;;5.43;2.20;;;17.50;60.00;;;;;;4992670;28;20897;-48
2022/07/17 05:41:51;;;;;;;4.53;2.10;;;17.60;59.80;;;;;;4971894;28;20485;-48
2022/07/17 05:44:18;;;;;;;2.90;1.90;;;17.60;59.80;;;;;;4994909;28;20459;-48
2022/07/17 05:46:44;;;;;;;9.90;2.30;;;17.60;60.00;;;;;;4991866;28;20494;-48
2022/07/17 05:49:11;;;;;;;3.73;2.10;;;17.70;60.10;;;;;;4994396;28;20501;-48
2022/07/17 05:51:38;;;;;;;4.27;2.20;;;17.90;59.40;;;;;;4991641;28;20477;-47
2022/07/17 05:54:05;;;;;;;5.33;2.17;;;17.90;59.00;;;;;;4991814;28;20461;-48
2022/07/17 05:56:34;;;;;;;3.67;2.47;;;18.00;59.10;;;;;;4992003;28;20457;-47
2022/07/17 05:59:01;;;;;;;2.70;1.80;;;18.10;58.80;;;;;;4994096;28;20504;-48
2022/07/17 06:01:28;;;;;;;4.10;2.20;;;18.10;58.20;;;;;;4971757;28;21335;-48
2022/07/17 06:03:55;;;;;;;4.53;2.17;;;18.10;58.60;;;;;;4990332;28;20469;-48
2022/07/17 06:06:22;;;;;;;4.63;2.63;;;18.20;58.70;;;;;;4994247;28;20908;-48
2022/07/17 06:08:50;;;;;;;3.00;1.70;;;18.20;58.30;;;;;;4979259;28;20481;-48
2022/07/17 06:11:16;;;;;;;5.23;1.90;;;18.30;58.30;;;;;;4992962;28;20457;-48
2022/07/17 06:13:48;;;;;;;4.70;2.10;;;18.40;58.00;;;;;;4976708;28;20484;-48
2022/07/17 06:16:15;;;;;;;6.00;2.10;;;18.50;57.90;;;;;;4991010;28;20469;-47
2022/07/17 06:18:42;;;;;;;6.57;1.50;;;18.60;57.80;;;;;;4991791;28;20473;-48
2022/07/17 06:21:09;;;;;;;4.90;2.00;;;18.70;57.50;;;;;;4993577;28;20471;-48
2022/07/17 06:23:35;;;;;;;2.83;1.60;;;18.80;56.30;;;;;;4993812;28;20804;-48
2022/07/17 06:26:02;;;;;;;5.00;1.63;;;18.80;55.60;;;;;;4974293;28;20571;-48
2022/07/17 06:28:29;;;;;;;2.30;1.50;;;18.90;54.40;;;;;;4973740;28;20461;-49
2022/07/17 06:30:55;;;;;;;2.63;1.47;;;19.10;54.10;;;;;;4994311;28;20458;-48
2022/07/17 06:33:22;;;;;;;6.93;1.50;;;19.20;53.50;;;;;;4991293;28;20541;-48
2022/07/17 06:35:49;;;;;;;3.20;1.00;;;19.30;53.50;;;;;;4973914;28;20485;-48
2022/07/17 06:38:16;;;;;;;2.00;1.30;;;19.40;53.10;;;;;;4979614;28;20552;-48
2022/07/17 06:40:43;;;;;;;1.10;1.00;;;19.50;52.60;;;;;;4991291;28;20470;-48
2022/07/17 06:43:09;;;;;;;3.87;1.20;;;19.60;52.10;;;;;;4992199;28;20519;-48
2022/07/17 06:45:36;;;;;;;1.70;1.30;;;19.80;51.60;;;;;;4994300;28;20445;-48
2022/07/17 06:48:04;;;;;;;1.20;1.10;;;19.90;50.40;;;;;;4992402;28;21025;-49
2022/07/17 06:50:31;;;;;;;3.50;1.13;;;20.00;50.10;;;;;;4992016;28;20461;-48
2022/07/17 06:52:58;;;;;;;2.37;1.10;;;20.10;50.00;;;;;;4991873;28;20477;-48
2022/07/17 06:55:24;;;;;;;2.80;1.00;;;20.20;49.70;;;;;;4990311;28;20544;-48
2022/07/17 06:57:51;;;;;;;4.07;1.63;;;20.30;49.30;;;;;;4991719;28;20468;-48
2022/07/17 07:00:18;;;;;;;4.60;1.03;;;20.40;49.50;;;;;;4989889;28;20467;-48
2022/07/17 07:02:46;;;;;;;3.37;1.30;;;20.60;49.40;;;;;;4991375;28;20581;-47
2022/07/17 07:05:13;;;;;;;1.33;1.10;;;20.70;49.70;;;;;;4988430;28;20463;-46
2022/07/17 07:07:40;;;;;;;6.77;1.10;;;20.80;48.90;;;;;;4987438;28;21036;-47
2022/07/17 07:10:08;;;;;;;1.20;1.10;;;20.80;48.80;;;;;;4987501;28;20461;-47
2022/07/17 07:12:35;;;;;;;5.20;1.27;;;21.00;48.80;;;;;;4987548;28;20469;-47
2022/07/17 07:15:02;;;;;;;1.93;1.10;;;21.10;48.60;;;;;;4989871;28;20469;-48
2022/07/17 07:17:37;;;;;;;2.67;1.70;;;21.20;47.70;;;;;;4973501;28;20467;-47
2022/07/17 07:20:05;;;;;;;6.93;2.03;;;21.30;47.50;;;;;;4991361;28;20821;-46
2022/07/17 07:22:32;;;;;;;3.10;1.60;;;21.40;47.90;;;;;;4991572;28;20488;-47
2022/07/17 07:25:00;;;;;;;4.53;1.97;;;21.60;47.50;;;;;;4991783;28;20457;-46
2022/07/17 07:27:26;;;;;;;2.20;1.60;;;21.70;46.90;;;;;;4991450;28;20505;-46
2022/07/17 07:29:53;;;;;;;1.87;1.57;;;21.90;46.60;;;;;;4992646;28;20449;-46
2022/07/17 07:32:21;;;;;;;2.07;1.20;;;22.10;46.70;;;;;;4975866;28;20449;-47
2022/07/17 07:34:47;;;;;;;2.03;1.00;;;22.30;46.40;;;;;;4988376;28;20476;-47
2022/07/17 07:37:14;;;;;;;5.00;1.43;;;22.60;45.70;;;;;;4989104;28;20476;-47
2022/07/17 07:39:41;;;;;;;4.17;1.37;;;22.80;45.60;;;;;;4991537;28;20461;-47
2022/07/17 07:42:08;;;;;;;2.10;1.20;;;23.00;44.80;;;;;;4994035;28;20504;-47
2022/07/17 07:44:35;;;;;;;1.13;1.03;;;23.10;43.00;;;;;;4971966;28;21021;-47
2022/07/17 07:47:02;;;;;;;1.73;0.90;;;23.30;42.80;;;;;;4992476;28;20463;-47
2022/07/17 07:49:29;;;;;;;2.10;1.00;;;23.40;42.90;;;;;;4992801;28;20975;-47
2022/07/17 07:52:04;;;;;;;3.87;0.90;;;23.50;43.10;;;;;;4993430;28;20945;-47
2022/07/17 07:54:32;;;;;;;4.17;1.03;;;23.70;43.20;;;;;;4991714;28;20519;-47
2022/07/17 07:56:59;;;;;;;3.50;1.30;;;23.90;42.20;;;;;;4993692;28;20448;-47
2022/07/17 07:59:26;;;;;;;2.13;0.77;;;24.10;42.50;;;;;;4992597;28;20456;-48
2022/07/17 08:01:53;;;;;;;2.20;1.07;;;24.30;41.80;;;;;;4992093;28;20496;-48
2022/07/17 08:04:20;;;;;;;1.43;1.07;;;24.40;41.20;;;;;;4993635;28;20448;-48
2022/07/17 08:06:47;;;;;;;1.57;0.90;;;24.60;41.60;;;;;;4987934;28;20471;-48
2022/07/17 08:09:13;;;;;;;2.50;1.03;;;24.80;41.10;;;;;;4992538;28;20444;-49
2022/07/17 08:11:41;;;;;;;1.80;1.20;;;25.00;40.60;;;;;;4992797;28;20541;-49
2022/07/17 08:14:08;;;;;;;1.73;0.90;;;25.10;40.30;;;;;;4993971;28;20876;-49
2022/07/17 08:16:42;;;;;;;2.67;1.10;;;25.30;40.30;;;;;;4992745;28;20953;-48
2022/07/17 08:19:09;;;;;;;2.97;0.60;;;25.50;39.90;;;;;;4991001;28;20600;-49
2022/07/17 08:21:37;;;;;;;1.90;0.87;;;25.60;39.60;;;;;;4990941;28;20479;-49
2022/07/17 08:24:04;;;;;;;5.23;1.87;;;25.70;39.00;;;;;;4976986;28;20464;-49
2022/07/17 08:26:31;;;;;;;1.83;1.00;;;25.70;38.70;;;;;;4998075;28;20815;-49
2022/07/17 08:28:58;;;;;;;4.87;1.40;;;25.80;39.10;;;;;;4981862;28;20464;-48
2022/07/17 08:31:25;;;;;;;1.67;1.00;;;25.90;38.80;;;;;;4998537;28;20440;-49
2022/07/17 08:33:52;;;;;;;1.70;0.80;;;26.10;38.90;;;;;;4998391;28;20575;-49
2022/07/17 08:36:19;;;;;;;2.23;0.90;;;26.10;37.90;;;;;;4998573;28;20487;-49
2022/07/17 08:38:45;;;;;;;2.80;1.30;;;26.20;37.90;;;;;;4995526;28;20911;-48
2022/07/17 08:41:16;;;;;;;1.63;1.07;;;26.30;37.20;;;;;;4983982;28;20459;-48
2022/07/17 08:43:43;;;;;;;1.77;0.93;;;26.40;36.70;;;;;;4998193;28;20540;-49
2022/07/17 08:46:11;;;;;;;2.00;1.10;;;26.50;36.50;;;;;;4997707;28;20495;-49
2022/07/17 08:48:44;;;;;;;4.27;0.90;;;26.60;36.00;;;;;;4999083;28;20526;-48
2022/07/17 08:51:11;;;;;;;4.03;1.10;;;26.70;36.60;;;;;;4998760;28;20453;-48
2022/07/17 08:53:39;;;;;;;3.53;0.93;;;26.90;36.60;;;;;;4998124;28;20244;-48
2022/07/17 08:56:06;;;;;;;2.80;1.13;;;27.00;36.60;;;;;;4997432;28;20455;-48
2022/07/17 08:58:33;;;;;;;2.70;1.23;;;27.20;35.80;;;;;;4995343;28;21352;-47
2022/07/17 09:01:01;;;;;;;3.07;1.00;;;27.30;35.70;;;;;;4996277;28;20296;-50
2022/07/17 09:03:28;;;;;;;2.10;0.83;;;27.40;35.40;;;;;;4979969;28;20253;-48
2022/07/17 09:05:55;;;;;;;1.23;1.10;;;27.50;35.10;;;;;;4980560;28;20556;-48
2022/07/17 09:08:24;;;;;;;2.43;1.00;;;27.60;35.00;;;;;;4996362;28;20205;-48
2022/07/17 09:10:54;;;;;;;1.10;0.87;;;27.80;35.30;;;;;;4996743;28;20268;-48
2022/07/17 09:13:30;;;;;;;2.00;1.20;;;27.90;34.50;;;;;;4997693;28;20222;-48
2022/07/17 09:15:59;;;;;;;2.20;1.00;;;28.00;33.80;;;;;;4977757;28;20218;-48
2022/07/17 09:18:26;;;;;;;3.43;0.90;;;28.10;33.80;;;;;;4977331;28;20210;-48
2022/07/17 09:20:55;;;;;;;1.57;0.87;;;28.20;33.90;;;;;;4981208;28;20210;-48
2022/07/17 09:23:23;;;;;;;3.23;1.20;;;28.30;33.90;;;;;;4996401;28;20233;-49
2022/07/17 09:25:55;;;;;;;1.87;1.00;;;28.50;33.10;;;;;;4996841;28;20211;-48
2022/07/17 09:28:23;;;;;;;5.27;1.10;;;28.50;32.80;;;;;;4995192;28;20837;-48
2022/07/17 09:30:55;;;;;;;2.33;1.00;;;28.60;33.00;;;;;;4961855;28;20225;-48
2022/07/17 09:33:29;;;;;;;2.67;1.00;;;28.70;32.40;;;;;;4994001;28;20687;-51
2022/07/17 09:36:14;;;;;;;2.23;0.93;;;28.80;32.40;;;;;;4996618;28;20229;-48
2022/07/17 09:38:42;;;;;;;1.77;0.80;;;29.00;32.40;;;;;;4994705;28;20220;-48
2022/07/17 09:41:15;;;;;;;1.50;1.00;;;29.20;32.00;;;;;;4996289;28;20396;-48
2022/07/17 09:43:54;;;;;;;2.80;1.10;;;29.30;31.20;;;;;;4996667;28;20313;-48
2022/07/17 09:46:32;;;;;;;2.63;1.05;;;29.40;31.30;;;;;;4977991;28;20273;-48
2022/07/17 09:49:03;;;;;;;2.03;0.88;;;29.60;30.40;;;;;;4976240;28;20213;-48
2022/07/17 09:51:32;;;;;;;1.75;0.80;;;29.60;30.70;;;;;;4993955;28;20228;-47
2022/07/17 09:54:03;;;;;;;1.45;0.85;;;29.80;30.90;;;;;;4994287;28;20217;-48
2022/07/17 09:56:32;;;;;;;1.98;1.13;;;30.00;30.20;;;;;;4979688;28;20663;-48
2022/07/17 09:59:11;;;;;;;2.33;1.70;;;30.10;29.90;;;;;;4978532;28;20214;-48
2022/07/17 10:01:40;;;;;;;1.48;1.17;;;30.10;29.60;;;;;;4995531;28;20244;-48
2022/07/17 10:04:10;;;;;;;1.45;1.00;;;30.10;29.40;;;;;;4979199;28;20225;-48
2022/07/17 10:06:38;;;;;;;1.23;1.10;;;30.20;29.40;;;;;;4996902;28;20270;-48
2022/07/17 10:09:05;;;;;;;2.35;1.08;;;30.40;29.00;;;;;;4983084;28;20206;-48
2022/07/17 10:11:35;;;;;;;1.90;0.93;;;30.50;29.10;;;;;;4997620;28;20202;-48
2022/07/17 10:14:12;;;;;;;2.22;1.50;;;30.90;29.10;;;;;;4996927;28;20289;-48
2022/07/17 10:16:40;;;;;;;2.72;1.67;;;31.00;28.70;;;;;;4994728;28;20213;-48
2022/07/17 10:19:23;;;;;;;2.63;1.50;;;30.80;28.00;;;;;;4982071;28;20205;-48
2022/07/17 10:22:00;;;;;;;1.85;1.10;;;31.00;28.10;;;;;;4996438;28;20227;-48
2022/07/17 10:24:29;;;;;;;2.60;1.00;;;31.10;27.60;;;;;;4993685;28;20257;-48
2022/07/17 10:26:58;;;;;;;2.88;1.60;;;31.30;28.10;;;;;;4994626;28;20211;-48
2022/07/17 10:29:32;;;;;;;2.22;1.30;;;31.20;28.20;;;;;;4996397;28;20699;-49
2022/07/17 10:32:01;;;;;;;0.85;0.70;;;31.30;27.80;;;;;;4978929;28;20263;-48
2022/07/17 10:34:38;;;;;;;1.60;1.00;;;31.30;27.50;;;;;;4995918;28;20212;-48
2022/07/17 10:37:37;;;;;;;2.85;1.08;;;31.30;27.80;;;;;;4995713;28;20221;-48
2022/07/17 10:40:19;;;;;;;1.65;0.82;;;31.30;27.70;;;;;;4947425;28;20209;-48
2022/07/17 10:42:54;;;;;;;2.58;1.10;;;31.20;28.10;;;;;;4994084;28;20225;-48
2022/07/17 10:45:26;;;;;;;1.48;0.88;;;31.10;27.70;;;;;;4995846;28;20201;-48
2022/07/17 10:47:59;;;;;;;4.68;1.33;;;31.00;28.00;;;;;;4991894;28;20245;-48
2022/07/17 10:50:27;;;;;;;2.67;1.67;;;30.80;27.80;;;;;;4996222;28;20212;-48
2022/07/17 10:53:10;;;;;;;3.63;1.30;;;30.50;28.40;;;;;;4992760;28;20647;-48
2022/07/17 10:55:41;;;;;;;3.10;1.50;;;30.20;28.90;;;;;;4993076;28;20296;-48
2022/07/17 10:58:25;;;;;;;1.67;1.50;;;29.90;29.00;;;;;;4993387;28;20305;-48
2022/07/17 11:01:12;;;;;;;2.80;1.05;;;29.50;28.70;;;;;;4996131;28;20221;-48
2022/07/17 11:03:44;;;;;;;2.13;1.20;;;29.10;28.50;;;;;;4990849;28;20237;-48
2022/07/17 11:06:25;;;;;;;3.60;0.90;;;28.80;28.50;;;;;;4994618;28;20213;-48
2022/07/17 11:08:54;;;;;;;1.33;1.03;;;28.50;28.50;;;;;;4978934;28;20304;-48
2022/07/17 11:11:22;;;;;;;2.10;1.20;;;28.40;28.80;;;;;;4993865;28;20476;-48
2022/07/17 11:14:10;;;;;;;1.63;1.10;;;28.20;29.10;;;;;;4995245;28;20209;-48
2022/07/17 11:16:51;;;;;;;2.40;0.80;;;28.10;29.60;;;;;;4978584;28;20557;-48
2022/07/17 11:19:33;;;;;;;1.10;1.00;;;28.00;28.70;;;;;;4976915;28;20212;-48
2022/07/17 11:22:02;;;;;;;6.00;1.03;;;27.80;28.10;;;;;;4977832;28;20209;-49
2022/07/17 11:24:41;;;;;;;5.80;1.90;;;27.60;28.90;;;;;;4977149;28;20660;-49
2022/07/17 11:27:19;;;;;;;2.60;1.30;;;27.50;29.70;;;;;;4994080;28;20555;-49
2022/07/17 11:29:48;;;;;;;2.73;1.10;;;27.30;30.50;;;;;;4993430;28;20445;-49
2022/07/17 11:32:15;;;;;;;2.47;0.93;;;27.30;31.20;;;;;;4980807;28;20487;-48
2022/07/17 11:34:42;;;;;;;2.33;0.80;;;27.10;31.10;;;;;;4995369;28;20212;-49
2022/07/17 11:37:09;;;;;;;1.93;1.10;;;27.00;31.70;;;;;;4992918;28;20543;-49
2022/07/17 11:39:42;;;;;;;1.93;1.40;;;26.90;31.60;;;;;;4995117;28;20511;-49
2022/07/17 11:42:11;;;;;;;2.00;1.40;;;26.80;31.50;;;;;;4992320;28;20464;-49
2022/07/17 11:44:38;;;;;;;1.67;1.20;;;26.80;31.40;;;;;;4973955;28;20484;-49
2022/07/17 11:47:06;;;;;;;3.03;0.77;;;26.80;31.30;;;;;;4989241;28;20464;-49
2022/07/17 11:49:36;;;;;;;3.17;1.10;;;26.80;31.80;;;;;;4994246;28;21000;-49
2022/07/17 11:52:11;;;;;;;3.23;0.87;;;26.90;32.00;;;;;;4994092;28;20209;-49
2022/07/17 11:54:54;;;;;;;2.20;1.37;;;26.90;31.80;;;;;;4976976;28;20448;-49
2022/07/17 11:57:22;;;;;;;2.33;1.30;;;26.90;31.80;;;;;;4994234;28;20577;-48
2022/07/17 11:59:51;;;;;;;4.20;1.00;;;26.90;32.10;;;;;;4995529;28;20503;-49
2022/07/17 12:02:23;;;;;;;2.63;1.23;;;26.80;32.30;;;;;;4993102;28;20528;-48
2022/07/17 12:04:56;;;;;;;2.17;1.17;;;26.80;31.90;;;;;;4979818;28;20967;-48
2022/07/17 12:07:26;;;;;;;4.20;1.50;;;26.90;32.60;;;;;;4961898;28;20445;-48
2022/07/17 12:09:53;;;;;;;5.70;1.13;;;26.90;31.90;;;;;;4993631;28;20452;-49
2022/07/17 12:12:23;;;;;;;5.27;1.13;;;26.90;31.80;;;;;;4980036;28;20212;-48
2022/07/17 12:14:54;;;;;;;3.90;1.23;;;27.00;32.10;;;;;;4992785;28;20453;-48
2022/07/17 12:17:22;;;;;;;1.20;1.10;;;27.00;31.90;;;;;;4994623;28;20532;-49
2022/07/17 12:19:51;;;;;;;2.10;1.30;;;27.00;31.90;;;;;;4994294;28;20463;-49
2022/07/17 12:22:19;;;;;;;2.30;1.30;;;27.00;31.70;;;;;;4980888;28;20555;-50
2022/07/17 12:24:46;;;;;;;1.67;0.90;;;27.00;32.10;;;;;;4995404;28;20900;-49
2022/07/17 12:27:15;;;;;;;2.10;1.23;;;27.10;31.80;;;;;;4993247;28;20474;-49
2022/07/17 12:29:43;;;;;;;1.80;0.93;;;27.00;30.60;;;;;;4975702;28;20448;-48
2022/07/17 12:32:17;;;;;;;1.73;1.13;;;27.00;30.50;;;;;;4993717;28;20449;-49
2022/07/17 12:34:47;;;;;;;1.73;1.00;;;27.00;30.40;;;;;;4994220;28;20448;-50
2022/07/17 12:37:19;;;;;;;1.27;1.00;;;27.00;30.90;;;;;;4993055;28;20470;-49
2022/07/17 12:39:47;;;;;;;4.63;1.40;;;27.00;30.80;;;;;;4977792;28;20463;-49
2022/07/17 12:42:18;;;;;;;1.27;0.83;;;27.00;31.00;;;;;;4981889;28;20555;-49
2022/07/17 12:44:49;;;;;;;2.47;1.23;;;27.00;31.40;;;;;;5003423;28;20559;-50
2022/07/17 12:47:17;;;;;;;2.60;0.90;;;27.00;32.00;;;;;;4996680;28;20445;-50
2022/07/17 12:49:44;;;;;;;3.40;1.20;;;27.00;32.10;;;;;;4976523;28;20451;-49
2022/07/17 12:52:12;;;;;;;1.90;1.17;;;27.00;32.60;;;;;;4977370;28;20443;-49
2022/07/17 12:54:38;;;;;;;1.80;1.00;;;27.00;32.60;;;;;;4994491;28;20480;-49
2022/07/17 12:57:07;;;;;;;2.00;0.93;;;27.00;32.30;;;;;;4994325;28;20218;-47